createdAt,value
2018-05-17T00:00:30.295Z,14.35
2018-05-17T00:03:00.349Z,14.43
2018-05-17T00:05:31.345Z,14.43
2018-05-17T00:07:59.778Z,14.49
2018-05-17T00:10:28.205Z,14.48
2018-05-17T00:12:57.977Z,14.52
2018-05-17T00:15:26.605Z,14.50
2018-05-17T00:17:54.939Z,14.46
2018-05-17T00:20:24.063Z,14.49
2018-05-17T00:22:52.385Z,14.49
2018-05-17T00:25:20.741Z,14.46
2018-05-17T00:27:49.112Z,14.36
2018-05-17T00:30:17.454Z,14.35
2018-05-17T00:32:45.817Z,14.33
2018-05-17T00:35:15.000Z,14.33
2018-05-17T00:37:44.146Z,14.36
2018-05-17T00:40:12.463Z,14.46
2018-05-17T00:42:40.838Z,14.48
2018-05-17T00:45:09.227Z,14.44
2018-05-17T00:47:37.564Z,14.51
2018-05-17T00:50:05.933Z,14.45
2018-05-17T00:52:34.307Z,14.42
2018-05-17T00:55:02.700Z,14.41
2018-05-17T00:57:31.029Z,14.35
2018-05-17T01:00:00.160Z,14.35
2018-05-17T01:02:28.500Z,14.32
2018-05-17T01:04:57.627Z,14.30
2018-05-17T01:07:25.984Z,14.28
2018-05-17T01:09:55.107Z,14.22
2018-05-17T01:12:23.449Z,14.20
2018-05-17T01:14:52.575Z,14.16
2018-05-17T01:17:20.939Z,14.11
2018-05-17T01:19:49.283Z,14.05
2018-05-17T01:22:17.674Z,14.05
2018-05-17T01:24:46.793Z,14.09
2018-05-17T01:27:15.194Z,14.04
2018-05-17T01:29:43.576Z,14.00
2018-05-17T01:32:11.929Z,13.98
2018-05-17T01:34:40.304Z,13.98
2018-05-17T01:37:26.304Z,13.92
2018-05-17T01:39:54.676Z,13.90
2018-05-17T01:42:23.024Z,13.87
2018-05-17T01:44:51.379Z,13.82
2018-05-17T01:47:19.723Z,13.81
2018-05-17T01:49:48.042Z,13.76
2018-05-17T01:52:16.392Z,13.78
2018-05-17T01:54:44.718Z,13.73
2018-05-17T01:57:13.852Z,13.69
2018-05-17T01:59:42.210Z,13.70
2018-05-17T02:02:10.640Z,13.71
2018-05-17T02:04:39.316Z,13.68
2018-05-17T02:07:07.828Z,13.72
2018-05-17T02:09:36.340Z,13.73
2018-05-17T02:12:05.577Z,13.71
2018-05-17T02:14:33.895Z,13.73
2018-05-17T02:17:03.101Z,13.73
2018-05-17T02:19:32.324Z,13.73
2018-05-17T02:22:00.692Z,13.75
2018-05-17T02:24:29.031Z,13.71
2018-05-17T02:26:57.374Z,13.74
2018-05-17T02:29:25.756Z,13.79
2018-05-17T02:31:54.896Z,13.74
2018-05-17T02:34:24.002Z,13.72
2018-05-17T02:36:53.139Z,13.67
2018-05-17T02:39:21.578Z,13.62
2018-05-17T02:41:50.677Z,13.64
2018-05-17T02:44:19.960Z,13.58
2018-05-17T02:46:48.446Z,13.51
2018-05-17T02:49:17.635Z,13.52
2018-05-17T02:51:45.976Z,13.51
2018-05-17T02:54:14.368Z,13.50
2018-05-17T02:56:43.068Z,13.49
2018-05-17T02:59:11.459Z,13.42
2018-05-17T03:01:40.545Z,13.39
2018-05-17T03:04:09.773Z,13.35
2018-05-17T03:06:38.129Z,13.34
2018-05-17T03:09:06.484Z,13.35
2018-05-17T03:11:34.839Z,13.34
2018-05-17T03:14:03.196Z,13.42
2018-05-17T03:16:31.587Z,13.41
2018-05-17T03:19:00.681Z,13.38
2018-05-17T03:21:29.126Z,13.44
2018-05-17T03:23:58.218Z,13.47
2018-05-17T03:26:27.352Z,13.49
2018-05-17T03:28:56.119Z,13.50
2018-05-17T03:31:25.314Z,13.50
2018-05-17T03:33:54.599Z,13.48
2018-05-17T03:36:23.773Z,13.46
2018-05-17T03:38:52.747Z,13.60
2018-05-17T03:41:21.071Z,13.58
2018-05-17T03:43:50.175Z,13.61
2018-05-17T03:46:18.645Z,13.64
2018-05-17T03:48:47.003Z,13.70
2018-05-17T03:51:16.187Z,13.70
2018-05-17T03:53:44.896Z,13.69
2018-05-17T03:56:14.837Z,13.75
2018-05-17T03:58:43.182Z,13.78
2018-05-17T04:01:29.902Z,13.85
2018-05-17T04:04:17.800Z,13.94
2018-05-17T04:06:46.152Z,13.92
2018-05-17T04:09:14.552Z,13.94
2018-05-17T04:11:42.954Z,13.99
2018-05-17T04:14:12.053Z,13.94
2018-05-17T04:16:40.529Z,13.94
2018-05-17T04:19:09.011Z,13.94
2018-05-17T04:21:37.411Z,13.99
2018-05-17T04:24:05.824Z,14.00
2018-05-17T04:26:34.202Z,13.93
2018-05-17T04:29:02.558Z,13.99
2018-05-17T04:31:30.919Z,14.09
2018-05-17T04:34:00.169Z,14.15
2018-05-17T04:36:28.535Z,14.22
2018-05-17T04:38:56.915Z,14.24
2018-05-17T04:41:25.245Z,14.28
2018-05-17T04:43:54.310Z,14.31
2018-05-17T04:46:22.907Z,14.29
2018-05-17T04:48:51.273Z,14.44
2018-05-17T04:51:20.537Z,14.53
2018-05-17T04:53:49.622Z,14.63
2018-05-17T04:56:18.563Z,14.75
2018-05-17T04:58:46.935Z,14.82
2018-05-17T05:01:15.285Z,14.86
2018-05-17T05:03:44.399Z,14.82
2018-05-17T05:06:12.878Z,14.90
2018-05-17T05:08:41.384Z,14.94
2018-05-17T05:11:09.715Z,14.91
2018-05-17T05:13:38.116Z,14.91
2018-05-17T05:16:06.946Z,14.84
2018-05-17T05:18:36.199Z,14.88
2018-05-17T05:21:04.637Z,14.90
2018-05-17T05:23:33.022Z,14.95
2018-05-17T05:26:01.861Z,15.00
2018-05-17T05:28:30.286Z,14.94
2018-05-17T05:30:58.642Z,14.89
2018-05-17T05:33:27.003Z,14.83
2018-05-17T05:35:55.362Z,14.91
2018-05-17T05:38:23.754Z,14.95
2018-05-17T05:40:53.219Z,14.93
2018-05-17T05:43:21.601Z,15.02
2018-05-17T05:45:50.532Z,14.98
2018-05-17T05:48:18.860Z,15.12
2018-05-17T05:50:48.214Z,15.21
2018-05-17T05:53:16.559Z,15.29
2018-05-17T05:55:45.653Z,15.35
2018-05-17T05:58:14.000Z,15.33
2018-05-17T06:00:42.366Z,15.42
2018-05-17T06:03:11.518Z,15.48
2018-05-17T06:05:41.750Z,15.32
2018-05-17T06:08:27.211Z,15.33
2018-05-17T06:10:55.710Z,15.52
2018-05-17T06:13:25.091Z,15.67
2018-05-17T06:15:53.862Z,15.85
2018-05-17T06:18:23.378Z,16.05
2018-05-17T06:20:54.477Z,16.18
2018-05-17T06:23:24.032Z,16.19
2018-05-17T06:25:52.379Z,16.29
2018-05-17T06:28:21.595Z,16.37
2018-05-17T06:30:50.766Z,16.46
2018-05-17T06:33:22.044Z,16.53
2018-05-17T06:35:51.401Z,16.58
2018-05-17T06:38:20.529Z,16.72
2018-05-17T06:40:48.890Z,16.88
2018-05-17T06:43:18.136Z,16.86
2018-05-17T06:45:46.525Z,16.57
2018-05-17T06:48:14.871Z,16.72
2018-05-17T06:50:44.281Z,16.70
2018-05-17T06:53:12.698Z,16.74
2018-05-17T06:55:41.043Z,16.73
2018-05-17T06:58:09.409Z,16.84
2018-05-17T07:00:37.831Z,16.95
2018-05-17T07:03:07.592Z,16.96
2018-05-17T07:05:35.951Z,17.01
2018-05-17T07:08:04.325Z,17.25
2018-05-17T07:10:33.463Z,17.35
2018-05-17T07:13:01.825Z,17.42
2018-05-17T07:15:30.359Z,17.69
2018-05-17T07:17:58.821Z,18.01
2018-05-17T07:20:27.912Z,17.80
2018-05-17T07:22:56.259Z,18.05
2018-05-17T07:25:24.648Z,18.18
2018-05-17T07:27:53.010Z,18.09
2018-05-17T07:30:21.367Z,18.22
2018-05-17T07:32:50.487Z,18.33
2018-05-17T07:35:18.898Z,18.32
2018-05-17T07:37:47.255Z,18.27
2018-05-17T07:40:15.614Z,18.37
2018-05-17T07:42:44.075Z,18.39
2018-05-17T07:45:13.662Z,18.38
2018-05-17T07:47:42.817Z,18.51
2018-05-17T07:50:11.137Z,18.86
2018-05-17T07:52:39.481Z,19.09
2018-05-17T07:55:07.885Z,19.09
2018-05-17T07:57:36.227Z,19.04
2018-05-17T08:00:04.586Z,19.21
2018-05-17T08:02:32.931Z,19.43
2018-05-17T08:05:02.078Z,19.64
2018-05-17T08:07:30.410Z,19.64
2018-05-17T08:09:59.167Z,19.55
2018-05-17T08:12:27.513Z,19.38
2018-05-17T08:14:55.886Z,19.27
2018-05-17T08:17:24.206Z,19.29
2018-05-17T08:19:52.585Z,19.31
2018-05-17T08:22:20.966Z,19.19
2018-05-17T08:24:49.351Z,19.22
2018-05-17T08:27:18.505Z,19.48
2018-05-17T08:29:46.856Z,19.68
2018-05-17T08:32:15.612Z,19.65
2018-05-17T08:34:43.971Z,19.61
2018-05-17T08:37:12.296Z,19.46
2018-05-17T08:39:40.677Z,19.55
2018-05-17T08:42:09.054Z,19.66
2018-05-17T08:44:37.845Z,19.62
2018-05-17T08:47:06.192Z,19.57
2018-05-17T08:49:34.814Z,19.67
2018-05-17T08:52:04.115Z,19.54
2018-05-17T08:54:32.435Z,19.62
2018-05-17T08:57:00.810Z,19.87
2018-05-17T08:59:30.658Z,19.93
2018-05-17T09:01:59.772Z,19.83
2018-05-17T09:04:28.127Z,19.69
2018-05-17T09:06:57.267Z,19.69
2018-05-17T09:09:25.620Z,19.74
2018-05-17T09:11:53.947Z,19.77
2018-05-17T09:14:22.303Z,19.93
2018-05-17T09:16:50.663Z,19.89
2018-05-17T09:19:19.046Z,19.92
2018-05-17T09:21:47.380Z,19.97
2018-05-17T09:24:16.516Z,20.09
2018-05-17T09:26:44.891Z,20.01
2018-05-17T09:29:13.237Z,20.11
2018-05-17T09:31:42.357Z,20.09
2018-05-17T09:34:10.722Z,20.12
2018-05-17T09:36:39.078Z,20.09
2018-05-17T09:39:07.465Z,20.00
2018-05-17T09:41:36.637Z,19.76
2018-05-17T09:44:05.013Z,19.80
2018-05-17T09:46:33.436Z,19.64
2018-05-17T09:49:01.799Z,19.67
2018-05-17T09:51:30.946Z,19.78
2018-05-17T09:53:59.288Z,19.94
2018-05-17T09:56:27.680Z,20.11
2018-05-17T09:58:56.016Z,20.31
2018-05-17T10:01:24.340Z,20.32
2018-05-17T10:03:52.707Z,20.30
2018-05-17T10:06:21.078Z,20.52
2018-05-17T10:08:49.415Z,20.73
2018-05-17T10:11:17.804Z,20.65
2018-05-17T10:13:46.951Z,20.62
2018-05-17T10:16:15.298Z,20.78
2018-05-17T10:18:45.360Z,20.77
2018-05-17T10:21:13.713Z,20.90
2018-05-17T10:23:42.073Z,21.09
2018-05-17T10:26:11.212Z,21.62
2018-05-17T10:28:39.609Z,21.86
2018-05-17T10:31:08.020Z,22.14
2018-05-17T10:33:36.304Z,22.43
2018-05-17T10:36:04.642Z,22.53
2018-05-17T10:38:33.039Z,22.43
2018-05-17T10:41:01.462Z,22.71
2018-05-17T10:43:29.863Z,22.83
2018-05-17T10:45:58.224Z,22.86
2018-05-17T10:48:26.640Z,22.68
2018-05-17T10:50:55.010Z,22.96
2018-05-17T10:53:23.344Z,22.88
2018-05-17T10:55:51.704Z,22.66
2018-05-17T10:58:20.805Z,23.10
2018-05-17T11:00:49.172Z,22.37
2018-05-17T11:03:18.268Z,22.34
2018-05-17T11:05:47.395Z,22.82
2018-05-17T11:08:15.740Z,22.72
2018-05-17T11:13:35.366Z,22.47
2018-05-17T11:16:03.809Z,22.40
2018-05-17T11:18:32.940Z,22.47
2018-05-17T11:21:01.291Z,22.52
2018-05-17T11:23:30.472Z,22.59
2018-05-17T11:25:59.165Z,22.58
2018-05-17T11:28:27.464Z,22.67
2018-05-17T11:30:56.657Z,22.36
2018-05-17T11:33:25.980Z,22.41
2018-05-17T11:35:54.323Z,22.33
2018-05-17T11:38:23.464Z,22.34
2018-05-17T11:40:51.790Z,23.04
2018-05-17T11:43:20.902Z,22.92
2018-05-17T11:45:49.275Z,22.68
2018-05-17T11:48:18.382Z,22.68
2018-05-17T11:50:46.863Z,22.59
2018-05-17T11:53:15.814Z,22.80
2018-05-17T11:55:44.191Z,22.94
2018-05-17T11:58:12.985Z,23.21
2018-05-17T12:00:41.324Z,22.79
2018-05-17T12:03:09.674Z,22.67
2018-05-17T12:05:38.095Z,22.31
2018-05-17T12:08:07.190Z,22.19
2018-05-17T12:10:35.570Z,22.43
2018-05-17T12:13:03.931Z,21.90
2018-05-17T12:15:32.261Z,21.72
2018-05-17T12:18:01.403Z,21.56
2018-05-17T12:20:30.643Z,21.27
2018-05-17T12:22:59.072Z,21.63
2018-05-17T12:25:27.359Z,21.57
2018-05-17T12:27:55.725Z,21.27
2018-05-17T12:30:24.059Z,21.54
2018-05-17T12:32:53.191Z,21.52
2018-05-17T12:35:21.562Z,21.20
2018-05-17T12:37:49.899Z,21.04
2018-05-17T12:40:18.274Z,20.98
2018-05-17T12:42:46.650Z,20.94
2018-05-17T12:45:14.969Z,20.75
2018-05-17T12:47:43.744Z,20.82
2018-05-17T12:50:12.866Z,20.89
2018-05-17T12:52:41.206Z,21.05
2018-05-17T12:55:09.600Z,21.03
2018-05-17T12:57:38.731Z,20.82
2018-05-17T13:00:07.448Z,20.76
2018-05-17T13:02:35.786Z,20.78
2018-05-17T13:05:04.175Z,20.86
2018-05-17T13:07:32.524Z,20.86
2018-05-17T13:10:00.900Z,20.89
2018-05-17T13:12:29.307Z,20.63
2018-05-17T13:14:57.648Z,20.56
2018-05-17T13:17:26.087Z,20.53
2018-05-17T13:19:55.154Z,20.50
2018-05-17T13:22:23.481Z,20.77
2018-05-17T13:24:51.871Z,20.98
2018-05-17T13:27:21.712Z,20.75
2018-05-17T13:29:50.096Z,21.04
2018-05-17T13:32:19.440Z,21.08
2018-05-17T13:34:47.776Z,21.04
2018-05-17T13:37:16.974Z,21.07
2018-05-17T13:39:47.541Z,21.39
2018-05-17T13:42:15.878Z,21.28
2018-05-17T13:44:45.001Z,21.28
2018-05-17T13:47:15.426Z,21.05
2018-05-17T13:49:43.775Z,21.38
2018-05-17T13:52:12.152Z,21.43
2018-05-17T13:54:41.073Z,21.47
2018-05-17T13:57:09.422Z,21.51
2018-05-17T13:59:37.790Z,21.48
2018-05-17T14:02:06.173Z,21.63
2018-05-17T14:04:34.530Z,21.71
2018-05-17T14:07:03.682Z,21.30
2018-05-17T14:09:32.899Z,21.37
2018-05-17T14:12:01.318Z,21.36
2018-05-17T14:14:29.684Z,21.40
2018-05-17T14:16:58.080Z,21.20
2018-05-17T14:19:26.417Z,21.55
2018-05-17T14:21:54.784Z,21.45
2018-05-17T14:24:23.150Z,21.41
2018-05-17T14:26:51.559Z,21.63
2018-05-17T14:29:19.931Z,21.74
2018-05-17T14:31:49.917Z,21.67
2018-05-17T14:34:18.286Z,21.67
2018-05-17T14:36:46.727Z,21.26
2018-05-17T14:39:15.138Z,21.20
2018-05-17T14:41:43.546Z,21.43
2018-05-17T14:44:11.947Z,21.45
2018-05-17T14:46:42.242Z,21.60
2018-05-17T14:49:10.702Z,21.49
2018-05-17T14:51:39.080Z,21.39
2018-05-17T14:54:07.466Z,21.51
2018-05-17T14:56:39.913Z,21.50
2018-05-17T14:59:09.037Z,21.49
2018-05-17T15:01:38.125Z,21.45
2018-05-17T15:04:06.436Z,21.24
2018-05-17T15:06:35.511Z,21.24
2018-05-17T15:09:03.905Z,21.26
2018-05-17T15:11:32.341Z,21.13
2018-05-17T15:14:00.735Z,21.08
2018-05-17T15:16:29.174Z,21.02
2018-05-17T15:18:58.277Z,21.09
2018-05-17T15:21:26.671Z,21.04
2018-05-17T15:23:55.051Z,21.10
2018-05-17T15:26:24.199Z,21.05
2018-05-17T15:28:52.926Z,20.89
2018-05-17T15:31:21.922Z,20.95
2018-05-17T15:33:51.190Z,21.07
2018-05-17T15:36:21.178Z,21.06
2018-05-17T15:38:49.510Z,21.00
2018-05-17T15:41:17.932Z,21.10
2018-05-17T15:43:46.277Z,21.12
2018-05-17T15:46:14.666Z,21.13
2018-05-17T15:48:43.038Z,21.11
2018-05-17T15:51:11.433Z,21.02
2018-05-17T15:53:39.877Z,21.04
2018-05-17T15:56:08.226Z,21.00
2018-05-17T15:58:37.756Z,20.98
2018-05-17T16:01:06.865Z,20.95
2018-05-17T16:03:36.296Z,20.80
2018-05-17T16:06:04.652Z,20.79
2018-05-17T16:08:33.003Z,20.79
2018-05-17T16:11:02.266Z,20.80
2018-05-17T16:13:30.643Z,20.77
2018-05-17T16:15:58.991Z,20.71
2018-05-17T16:18:27.346Z,20.72
2018-05-17T16:20:55.710Z,20.70
2018-05-17T16:23:25.244Z,20.71
2018-05-17T16:25:53.633Z,20.77
2018-05-17T16:28:22.809Z,20.85
2018-05-17T16:30:51.577Z,20.91
2018-05-17T16:33:21.790Z,20.98
2018-05-17T16:35:50.923Z,21.06
2018-05-17T16:38:19.270Z,21.22
2018-05-17T16:40:48.406Z,21.20
2018-05-17T16:43:16.777Z,21.10
2018-05-17T16:45:45.110Z,21.19
2018-05-17T16:48:14.371Z,21.18
2018-05-17T16:50:43.884Z,21.26
2018-05-17T16:53:13.230Z,21.21
2018-05-17T16:55:41.511Z,21.21
2018-05-17T16:58:09.875Z,21.20
2018-05-17T17:00:41.202Z,21.12
2018-05-17T17:03:11.326Z,21.18
2018-05-17T17:05:39.858Z,21.14
2018-05-17T17:08:09.206Z,21.15
2018-05-17T17:10:38.197Z,21.14
2018-05-17T17:13:07.127Z,21.07
2018-05-17T17:15:38.684Z,21.00
2018-05-17T17:18:07.633Z,20.89
2018-05-17T17:20:44.141Z,20.90
2018-05-17T17:23:13.857Z,20.85
2018-05-17T17:25:42.422Z,20.89
2018-05-17T17:28:13.134Z,20.91
2018-05-17T17:30:42.828Z,20.89
2018-05-17T17:33:11.261Z,20.89
2018-05-17T17:35:40.952Z,20.87
2018-05-17T17:38:09.869Z,20.90
2018-05-17T17:40:45.694Z,20.90
2018-05-17T17:43:15.028Z,20.98
2018-05-17T17:45:43.733Z,21.02
2018-05-17T17:48:14.692Z,21.05
2018-05-17T17:50:43.364Z,21.04
2018-05-17T17:53:12.028Z,21.04
2018-05-17T17:55:41.733Z,20.85
2018-05-17T17:58:10.249Z,20.91
2018-05-17T18:00:39.297Z,20.82
2018-05-17T18:03:07.690Z,20.66
2018-05-17T18:05:37.779Z,20.58
2018-05-17T18:08:06.144Z,20.44
2018-05-17T18:10:35.291Z,20.40
2018-05-17T18:13:03.696Z,20.21
2018-05-17T18:15:32.027Z,20.12
2018-05-17T18:18:01.164Z,20.03
2018-05-17T18:20:30.687Z,19.95
2018-05-17T18:22:59.092Z,19.82
2018-05-17T18:25:28.309Z,19.76
2018-05-17T18:27:56.695Z,19.74
2018-05-17T18:30:25.064Z,19.60
2018-05-17T18:32:53.424Z,19.46
2018-05-17T18:35:22.740Z,19.39
2018-05-17T18:37:51.123Z,19.29
2018-05-17T18:40:19.543Z,19.15
2018-05-17T18:42:47.960Z,18.90
2018-05-17T18:45:16.370Z,18.89
2018-05-17T18:47:45.308Z,18.89
2018-05-17T18:50:15.324Z,18.74
2018-05-17T18:52:44.861Z,18.71
2018-05-17T18:55:13.264Z,18.56
2018-05-17T18:57:41.676Z,18.63
2018-05-17T19:00:10.883Z,18.71
2018-05-17T19:02:40.144Z,18.63
2018-05-17T19:05:09.245Z,18.65
2018-05-17T19:07:37.739Z,18.54
2018-05-17T19:10:06.136Z,18.57
2018-05-17T19:12:36.178Z,18.49
2018-05-17T19:15:04.617Z,18.42
2018-05-17T19:17:32.981Z,18.28
2018-05-17T19:20:07.379Z,18.20
2018-05-17T19:22:36.846Z,18.03
2018-05-17T19:25:07.636Z,18.03
2018-05-17T19:27:36.935Z,18.09
2018-05-17T19:30:05.328Z,18.03
2018-05-17T19:32:34.487Z,17.91
2018-05-17T19:35:03.734Z,17.82
2018-05-17T19:37:32.894Z,17.83
2018-05-17T19:40:01.877Z,17.88
2018-05-17T19:42:30.344Z,17.87
2018-05-17T19:44:58.756Z,17.90
2018-05-17T19:47:27.215Z,17.90
2018-05-17T19:49:56.780Z,17.83
2018-05-17T19:52:26.005Z,17.72
2018-05-17T19:54:54.411Z,17.62
2018-05-17T19:57:22.777Z,17.61
2018-05-17T19:59:52.369Z,17.52
2018-05-17T20:02:20.728Z,17.45
2018-05-17T20:04:49.879Z,17.32
2018-05-17T20:07:18.248Z,17.26
2018-05-17T20:09:46.681Z,17.23
2018-05-17T20:12:15.419Z,17.27
2018-05-17T20:14:43.813Z,17.26
2018-05-17T20:17:12.156Z,17.17
2018-05-17T20:19:40.560Z,17.20
2018-05-17T20:22:08.923Z,17.13
2018-05-17T20:24:37.279Z,17.16
2018-05-17T20:27:11.681Z,17.11
2018-05-17T20:29:41.081Z,16.98
2018-05-17T20:32:10.280Z,17.03
2018-05-17T20:34:39.447Z,17.08
2018-05-17T20:37:07.830Z,17.07
2018-05-17T20:39:36.615Z,17.12
2018-05-17T20:42:05.053Z,17.02
2018-05-17T20:44:33.421Z,17.01
2018-05-17T20:47:01.807Z,16.94
2018-05-17T20:49:30.157Z,16.82
2018-05-17T20:51:59.314Z,16.65
2018-05-17T20:54:27.645Z,16.69
2018-05-17T20:56:55.995Z,16.59
2018-05-17T20:59:25.138Z,16.60
2018-05-17T21:01:53.495Z,16.55
2018-05-17T21:04:21.869Z,16.54
2018-05-17T21:06:50.197Z,16.54
2018-05-17T21:09:18.562Z,16.48
2018-05-17T21:11:46.911Z,16.45
2018-05-17T21:14:15.687Z,16.33
2018-05-17T21:16:44.073Z,16.32
2018-05-17T21:19:12.403Z,16.34
2018-05-17T21:21:40.797Z,16.27
2018-05-17T21:24:09.242Z,16.22
2018-05-17T21:26:37.592Z,16.16
2018-05-17T21:29:06.745Z,16.06
2018-05-17T21:31:35.098Z,16.06
2018-05-17T21:34:03.529Z,16.09
2018-05-17T21:36:31.825Z,15.92
2018-05-17T21:39:00.202Z,15.95
2018-05-17T21:41:28.575Z,15.96
2018-05-17T21:43:56.919Z,15.94
2018-05-17T21:46:25.311Z,15.88
2018-05-17T21:48:54.430Z,15.73
2018-05-17T21:51:22.765Z,15.70
2018-05-17T21:53:51.129Z,15.51
2018-05-17T21:56:19.488Z,15.55
2018-05-17T21:58:47.828Z,15.41
2018-05-17T22:01:16.200Z,15.47
2018-05-17T22:03:45.315Z,15.56
2018-05-17T22:06:13.708Z,15.57
2018-05-17T22:08:42.075Z,15.52
2018-05-17T22:11:10.442Z,15.39
2018-05-17T22:13:38.807Z,15.35
2018-05-17T22:16:08.703Z,15.37
2018-05-17T22:18:37.026Z,15.47
2018-05-17T22:21:05.425Z,15.39
2018-05-17T22:23:33.769Z,15.39
2018-05-17T22:26:02.240Z,15.23
2018-05-17T22:28:30.601Z,15.17
2018-05-17T22:30:59.774Z,15.08
2018-05-17T22:33:29.618Z,14.99
2018-05-17T22:35:58.803Z,15.00
2018-05-17T22:38:27.128Z,15.00
2018-05-17T22:40:55.575Z,15.03
2018-05-17T22:43:24.674Z,15.02
2018-05-17T22:45:53.008Z,14.88
2018-05-17T22:48:21.383Z,14.93
2018-05-17T22:50:49.763Z,14.89
2018-05-17T22:53:18.094Z,14.81
2018-05-17T22:55:46.420Z,14.62
2018-05-17T23:01:08.974Z,14.49
2018-05-17T23:03:37.367Z,14.58
2018-05-17T23:06:05.693Z,14.49
2018-05-17T23:08:34.038Z,14.49
2018-05-17T23:11:03.181Z,14.45
2018-05-17T23:13:31.541Z,14.42
2018-05-17T23:15:59.864Z,14.34
2018-05-17T23:18:28.252Z,14.24
2018-05-17T23:20:57.025Z,14.26
2018-05-17T23:23:25.382Z,14.13
2018-05-17T23:25:53.786Z,14.22
2018-05-17T23:28:22.146Z,14.15
2018-05-17T23:30:50.466Z,14.06
2018-05-17T23:33:19.610Z,13.97
2018-05-17T23:35:47.949Z,13.84
2018-05-17T23:38:17.090Z,13.90
2018-05-17T23:43:48.610Z,13.71
2018-05-17T23:46:17.874Z,13.77
2018-05-17T23:48:46.225Z,13.71
2018-05-17T23:51:14.562Z,13.64
2018-05-17T23:53:43.676Z,13.56
2018-05-17T23:56:12.764Z,13.56
2018-05-17T23:58:41.146Z,13.45
